Time;durP1;ratioP1;P1;durP2;ratioP2;P2;SDS_P1;SDS_P2;PMS_P1;PMS_P2;Temp;Humidity;BMP_temperature;BMP_pressure;BME280_temperature;BME280_humidity;BME280_pressure;Samples;Min_cycle;Max_cycle;Signal;HPM_P1;HPM_P2
2022/04/30 00:02:09;;;;;;;8.43;5.17;;;;;;;12.44;66.13;100014.00;8177597;28;20134;-71
2022/04/30 00:06:11;;;;;;;8.60;5.28;;;;;;;12.36;67.21;100016.59;8179534;29;20071;-71
2022/04/30 00:10:13;;;;;;;11.07;5.45;;;;;;;12.30;67.66;100012.28;8182251;29;20427;-71
2022/04/30 00:14:14;;;;;;;8.70;5.50;;;;;;;12.26;67.10;100013.16;8177071;29;20048;-71
2022/04/30 00:18:16;;;;;;;8.88;5.63;;;;;;;12.22;67.65;100005.34;8179416;28;20082;-71
2022/04/30 00:22:17;;;;;;;8.90;5.93;;;;;;;12.18;68.98;100003.59;8176380;28;20739;-71
2022/04/30 00:26:19;;;;;;;9.55;6.18;;;;;;;12.13;69.76;100005.34;8195451;28;20047;-70
2022/04/30 00:30:20;;;;;;;8.53;5.80;;;;;;;12.12;70.04;100001.00;8192066;28;20071;-71
2022/04/30 00:34:22;;;;;;;13.38;6.57;;;;;;;12.05;69.86;99990.63;8178582;28;20149;-70
2022/04/30 00:38:23;;;;;;;8.73;6.03;;;;;;;11.96;70.38;99985.41;8176692;29;20132;-71
2022/04/30 00:42:25;;;;;;;10.15;6.85;;;;;;;11.89;71.88;99981.09;8174697;29;20044;-71
2022/04/30 00:46:27;;;;;;;11.23;6.47;;;;;;;11.82;72.59;99971.53;8178880;29;20057;-70
2022/04/30 00:50:36;;;;;;;11.73;6.50;;;;;;;11.78;72.13;99967.16;8174599;29;20586;-71
2022/04/30 00:54:40;;;;;;;13.27;7.38;;;;;;;11.72;72.03;99952.44;8176874;29;20130;-71
2022/04/30 00:58:45;;;;;;;11.50;7.82;;;;;;;11.66;72.18;99948.94;8181969;29;20043;-70
2022/04/30 01:02:47;;;;;;;11.73;7.22;;;;;;;11.57;73.10;99946.34;8189569;29;20047;-71
2022/04/30 01:06:51;;;;;;;8.90;7.00;;;;;;;11.53;73.10;99942.88;8202103;28;20053;-70
2022/04/30 01:10:56;;;;;;;13.05;8.50;;;;;;;11.52;72.16;99942.88;8178668;29;20039;-70
2022/04/30 01:14:58;;;;;;;9.95;6.60;;;;;;;11.50;72.45;99943.75;8187670;29;20078;-70
2022/04/30 01:19:01;;;;;;;14.90;7.47;;;;;;;11.40;72.48;99939.41;8186693;28;20120;-70
2022/04/30 01:23:04;;;;;;;11.50;8.20;;;;;;;11.36;72.75;99940.28;8177352;28;20078;-70
2022/04/30 01:27:07;;;;;;;10.90;7.60;;;;;;;11.30;72.84;99937.66;8181820;28;20083;-70
2022/04/30 01:37:22;;;;;;;10.63;7.00;;;;;;;11.24;72.43;99931.56;8181606;28;20432;-70
2022/04/30 01:39:57;;;;;;;9.00;7.45;;;;;;;10.96;72.68;99934.13;8181186;29;20854;-71
2022/04/30 01:44:00;;;;;;;10.57;7.18;;;;;;;10.95;73.10;99926.31;8173549;29;20094;-70
2022/04/30 01:48:04;;;;;;;11.43;7.20;;;;;;;10.84;73.48;99921.09;8198956;28;20853;-70
2022/04/30 01:52:07;;;;;;;13.05;7.78;;;;;;;10.72;73.91;99928.84;8188855;28;20070;-70
2022/04/30 01:56:08;;;;;;;9.05;7.35;;;;;;;10.71;74.13;99921.91;8188360;28;20062;-70
2022/04/30 02:00:13;;;;;;;10.38;7.53;;;;;;;10.68;74.19;99924.50;8186219;29;20050;-70
2022/04/30 02:04:15;;;;;;;9.75;6.93;;;;;;;10.62;74.50;99919.31;8187188;28;20062;-70
2022/04/30 02:08:20;;;;;;;11.63;7.18;;;;;;;10.58;74.30;99914.06;8190546;28;20055;-71
2022/04/30 02:12:23;;;;;;;9.65;7.15;;;;;;;10.53;74.17;99904.53;8186294;29;20058;-71
2022/04/30 02:16:27;;;;;;;9.65;6.68;;;;;;;10.45;74.04;99904.50;8188060;28;20052;-70
2022/04/30 02:20:31;;;;;;;10.07;6.63;;;;;;;10.37;74.90;99906.19;8187863;29;20044;-71
2022/04/30 02:24:32;;;;;;;15.40;6.55;;;;;;;10.33;74.35;99908.78;8187912;28;20090;-70
2022/04/30 02:28:34;;;;;;;8.52;5.65;;;;;;;10.33;74.28;99903.59;8180322;28;20777;-71
2022/04/30 02:32:44;;;;;;;8.75;6.25;;;;;;;10.31;73.94;99910.50;8187757;28;20125;-71
2022/04/30 02:36:46;;;;;;;8.35;5.13;;;;;;;10.25;74.55;99906.16;8187161;28;20109;-71
2022/04/30 02:40:47;;;;;;;9.48;6.00;;;;;;;10.19;74.46;99903.47;8189535;28;20138;-71
2022/04/30 02:44:49;;;;;;;8.80;5.43;;;;;;;10.14;74.74;99900.84;8184246;28;20062;-71
2022/04/30 02:48:50;;;;;;;5.88;5.15;;;;;;;10.09;74.24;99905.16;8191504;28;20046;-71
2022/04/30 02:52:54;;;;;;;7.32;5.57;;;;;;;10.07;74.48;99908.63;8191223;28;20371;-71
2022/04/30 02:56:56;;;;;;;8.02;5.20;;;;;;;10.02;74.55;99900.78;8189022;28;20523;-70
2022/04/30 03:00:57;;;;;;;8.43;5.60;;;;;;;10.02;73.72;99902.50;8187116;29;20071;-71
2022/04/30 03:04:59;;;;;;;5.53;4.97;;;;;;;10.02;73.66;99913.75;8185975;28;20079;-71
2022/04/30 03:09:00;;;;;;;7.15;5.88;;;;;;;9.97;74.64;99910.28;8184761;29;20351;-71
2022/04/30 03:13:02;;;;;;;8.80;6.22;;;;;;;9.89;75.32;99912.81;8181283;28;20098;-70
2022/04/30 03:25:54;;;;;;;8.88;6.43;;;;;;;9.34;77.50;99919.31;8178179;28;20086;-72
2022/04/30 03:29:56;;;;;;;11.10;6.50;;;;;;;9.25;78.44;99917.47;8179616;29;20043;-71
2022/04/30 03:33:57;;;;;;;8.15;5.97;;;;;;;9.23;78.95;99923.50;8184414;28;20055;-71
2022/04/30 03:37:59;;;;;;;10.65;7.10;;;;;;;9.19;79.53;99917.44;8180136;29;20047;-71
2022/04/30 03:42:01;;;;;;;10.30;7.80;;;;;;;9.13;79.47;99913.91;8183314;29;20135;-71
2022/04/30 03:46:05;;;;;;;12.23;7.60;;;;;;;9.08;80.03;99917.31;8181752;29;20062;-72
2022/04/30 03:50:07;;;;;;;9.57;7.32;;;;;;;9.08;80.56;99906.97;8168871;29;20047;-70
2022/04/30 03:54:08;;;;;;;13.10;7.30;;;;;;;9.03;81.13;99907.78;8166016;29;20081;-71
2022/04/30 03:58:10;;;;;;;15.27;7.40;;;;;;;9.01;80.70;99912.06;8182947;28;20702;-71
2022/04/30 04:02:12;;;;;;;13.77;8.00;;;;;;;9.03;80.83;99913.81;8165776;29;20047;-71
2022/04/30 04:06:15;;;;;;;;;;;;;;;9.00;81.00;99923.28;8180188;29;20043;-71
2022/04/30 04:10:16;;;;;;;7.97;6.77;;;;;;;8.96;81.28;99922.38;8172461;29;19969;-71
2022/04/30 04:18:38;;;;;;;9.43;7.57;;;;;;;9.00;81.30;99921.56;8189680;28;20061;-71
2022/04/30 04:22:40;;;;;;;13.27;8.63;;;;;;;9.00;81.85;99924.16;8187973;29;20538;-71
2022/04/30 04:26:41;;;;;;;10.82;7.80;;;;;;;8.97;82.27;99931.00;8192748;28;20039;-71
2022/04/30 04:30:43;;;;;;;12.38;8.23;;;;;;;8.99;82.93;99932.78;8187227;29;20051;-71
2022/04/30 04:34:44;;;;;;;12.73;8.73;;;;;;;9.02;83.47;99927.63;8186433;28;20055;-71
2022/04/30 04:38:51;;;;;;;10.23;7.95;;;;;;;9.07;83.14;99922.50;8186608;29;20098;-72
2022/04/30 04:42:52;;;;;;;11.82;7.78;;;;;;;9.16;83.35;99940.72;8187854;28;20391;-71
2022/04/30 04:46:54;;;;;;;10.00;7.95;;;;;;;9.21;83.08;99940.78;8185102;29;20075;-71
2022/04/30 04:50:56;;;;;;;10.30;8.00;;;;;;;9.32;82.47;99944.31;8169451;29;20538;-71
2022/04/30 04:54:58;;;;;;;9.97;7.10;;;;;;;9.35;82.48;99949.56;8171016;29;20049;-71
2022/04/30 04:59:00;;;;;;;11.63;7.95;;;;;;;9.37;82.63;99956.47;8189132;29;20058;-71
2022/04/30 05:03:01;;;;;;;11.90;7.20;;;;;;;9.44;82.24;99954.81;8185133;29;20467;-71
2022/04/30 05:07:03;;;;;;;8.67;7.67;;;;;;;9.51;82.48;99956.59;8170330;28;20051;-71
2022/04/30 05:11:05;;;;;;;10.93;7.07;;;;;;;9.56;81.87;99961.84;8188244;29;20482;-71
2022/04/30 05:15:06;;;;;;;9.55;7.20;;;;;;;9.61;81.69;99957.53;8184560;29;20047;-72
2022/04/30 05:19:08;;;;;;;9.77;7.20;;;;;;;9.67;81.05;99957.59;8174786;28;20079;-72
2022/04/30 05:23:10;;;;;;;13.70;7.50;;;;;;;9.76;80.46;99962.00;8184542;29;20061;-71
2022/04/30 05:27:11;;;;;;;8.32;7.20;;;;;;;9.81;80.73;99965.47;8160815;29;20109;-71
2022/04/30 05:31:13;;;;;;;7.65;6.75;;;;;;;9.89;80.86;99967.31;8184225;28;20053;-72
2022/04/30 05:35:14;;;;;;;10.00;7.18;;;;;;;9.92;80.82;99971.63;8184485;28;20063;-72
2022/04/30 05:39:16;;;;;;;9.05;6.88;;;;;;;9.96;79.86;99968.19;8169337;29;20146;-72
2022/04/30 05:43:17;;;;;;;8.52;6.50;;;;;;;10.29;79.31;99967.59;8176174;29;20056;-72
2022/04/30 05:47:19;;;;;;;10.80;7.10;;;;;;;10.58;78.70;99970.31;8167172;29;20061;-72
2022/04/30 05:51:21;;;;;;;7.65;6.13;;;;;;;10.69;78.10;99970.38;8184666;29;20118;-72
2022/04/30 05:55:23;;;;;;;10.85;7.00;;;;;;;10.91;77.67;99964.41;8187577;29;20360;-72
2022/04/30 05:59:24;;;;;;;11.82;7.05;;;;;;;11.15;76.15;99967.09;8183909;28;20047;-72
2022/04/30 06:03:28;;;;;;;8.93;5.88;;;;;;;11.29;75.94;99977.50;8186628;29;20083;-72
2022/04/30 06:07:30;;;;;;;9.90;6.80;;;;;;;11.52;75.01;99976.69;8183613;29;20435;-72
2022/04/30 06:11:31;;;;;;;7.43;6.43;;;;;;;11.69;75.20;99977.59;8184700;29;20052;-72
2022/04/30 06:15:33;;;;;;;9.43;7.97;;;;;;;11.74;74.02;99981.03;8183874;29;20043;-71
2022/04/30 06:19:35;;;;;;;9.20;6.55;;;;;;;12.13;72.60;99982.78;8188768;28;20680;-72
2022/04/30 06:23:36;;;;;;;6.80;6.05;;;;;;;12.84;71.16;99979.13;8183254;29;20133;-72
2022/04/30 06:27:39;;;;;;;6.82;6.22;;;;;;;13.49;67.78;99982.28;8189412;29;20078;-71
2022/04/30 06:31:40;;;;;;;8.20;6.80;;;;;;;13.90;65.40;99988.06;8169655;28;20039;-72
2022/04/30 06:35:43;;;;;;;11.00;6.60;;;;;;;14.20;63.89;99993.91;8182484;28;20843;-73
2022/04/30 06:39:45;;;;;;;6.88;6.18;;;;;;;14.44;63.67;99991.06;8161714;29;20134;-72
2022/04/30 06:43:49;;;;;;;10.47;6.47;;;;;;;14.69;62.06;99998.63;8164529;29;20408;-73
2022/04/30 06:47:50;;;;;;;7.30;6.15;;;;;;;14.56;61.32;99995.31;8183371;29;20050;-72
2022/04/30 06:51:52;;;;;;;9.27;5.90;;;;;;;14.57;61.37;99991.81;8183811;29;20043;-72
2022/04/30 07:04:34;;;;;;;6.63;5.18;;;;;;;14.47;59.69;99996.25;8179383;29;20487;-72
2022/04/30 07:08:35;;;;;;;6.63;6.03;;;;;;;14.38;59.73;99993.72;8183427;29;20383;-72
2022/04/30 07:12:37;;;;;;;7.47;5.38;;;;;;;14.62;60.21;99991.75;8170722;29;20047;-72
2022/04/30 07:16:38;;;;;;;6.87;5.13;;;;;;;14.69;60.36;99996.00;8187739;28;20460;-72
2022/04/30 07:20:41;;;;;;;9.53;5.73;;;;;;;14.52;59.61;100010.13;8180386;29;20043;-73
2022/04/30 07:24:42;;;;;;;8.35;5.22;;;;;;;14.49;60.31;100004.94;8185042;29;20329;-72
2022/04/30 07:28:46;;;;;;;8.07;5.55;;;;;;;14.42;60.74;100010.22;8168136;29;20359;-72
2022/04/30 07:32:47;;;;;;;7.32;5.47;;;;;;;14.32;60.41;100008.56;8183028;28;20074;-73
2022/04/30 07:36:49;;;;;;;7.68;5.78;;;;;;;14.42;61.23;100010.22;8177343;28;20090;-73
2022/04/30 07:40:52;;;;;;;8.20;5.90;;;;;;;14.62;59.47;100005.69;8185415;28;20077;-74
2022/04/30 07:44:59;;;;;;;8.57;5.35;;;;;;;14.60;59.80;100007.44;8187906;28;20423;-73
2022/04/30 07:49:00;;;;;;;10.85;6.00;;;;;;;14.33;60.00;100016.38;8190557;29;20129;-73
2022/04/30 07:53:03;;;;;;;7.53;5.60;;;;;;;14.31;60.97;100014.69;8189667;29;20070;-72
2022/04/30 07:57:05;;;;;;;7.55;6.07;;;;;;;14.45;60.22;100007.59;8173642;29;20456;-72
2022/04/30 08:01:07;;;;;;;7.70;5.20;;;;;;;14.35;60.43;100004.16;8187846;29;20071;-72
2022/04/30 08:05:08;;;;;;;7.72;6.93;;;;;;;14.64;59.81;100010.88;8188140;29;20043;-72
2022/04/30 08:09:10;;;;;;;6.33;5.47;;;;;;;15.17;58.13;100012.00;8186846;28;20146;-71
2022/04/30 08:13:12;;;;;;;8.50;6.25;;;;;;;15.74;55.14;100012.94;8186692;28;20760;-72
2022/04/30 08:17:14;;;;;;;5.18;4.68;;;;;;;16.38;54.84;100006.66;8207958;28;20427;-72
2022/04/30 08:21:15;;;;;;;6.23;3.90;;;;;;;17.04;51.61;100011.47;8187766;29;20058;-71
2022/04/30 08:25:17;;;;;;;6.90;4.37;;;;;;;17.12;50.78;100000.84;8192214;29;20478;-72
2022/04/30 08:29:19;;;;;;;4.85;4.28;;;;;;;17.28;50.65;100009.25;8190951;28;20427;-72
2022/04/30 08:33:20;;;;;;;5.20;3.70;;;;;;;17.51;49.87;100001.72;8186745;28;20503;-72
2022/04/30 08:37:22;;;;;;;6.17;3.67;;;;;;;17.63;48.87;99998.81;8183792;29;20458;-72
2022/04/30 08:41:23;;;;;;;5.17;4.77;;;;;;;17.60;48.76;100003.28;8173463;29;20110;-73
2022/04/30 08:45:26;;;;;;;5.53;4.22;;;;;;;17.44;50.01;100002.78;8184299;29;20154;-72
2022/04/30 08:49:27;;;;;;;;;;;;;;;17.36;50.25;100010.81;8189348;29;20071;-72
2022/04/30 08:53:29;;;;;;;3.80;3.47;;;;;;;17.12;49.48;100006.94;8188128;29;20345;-72
2022/04/30 08:57:31;;;;;;;5.78;4.15;;;;;;;17.18;51.02;100005.94;8184571;28;20058;-72
2022/04/30 09:01:53;;;;;;;5.68;4.57;;;;;;;17.15;49.99;100006.03;8181754;29;20657;-72
2022/04/30 09:05:58;;;;;;;;;;;;;;;16.72;49.10;100000.81;8182400;29;20051;-72
2022/04/30 09:10:05;;;;;;;6.43;3.90;;;;;;;16.54;52.05;100001.97;8179143;29;19933;-71
2022/04/30 09:14:06;;;;;;;4.57;4.13;;;;;;;16.35;51.25;100006.69;8164586;29;20086;-72
2022/04/30 09:18:08;;;;;;;4.10;3.65;;;;;;;16.18;52.76;100003.50;8160046;29;20048;-72
2022/04/30 09:22:10;;;;;;;7.57;3.75;;;;;;;16.12;52.47;99995.75;8178560;29;20071;-72
2022/04/30 09:26:12;;;;;;;5.15;4.47;;;;;;;16.10;51.31;99998.38;8177225;29;20458;-72
2022/04/30 09:30:18;;;;;;;8.15;4.18;;;;;;;16.04;51.98;99993.25;8177064;29;20070;-72
2022/04/30 09:38:40;;;;;;;4.45;3.85;;;;;;;16.49;51.59;99996.81;8178617;29;20046;-72
2022/04/30 09:42:44;;;;;;;5.70;3.40;;;;;;;16.96;51.33;99997.66;8161530;29;20052;-71
2022/04/30 09:46:45;;;;;;;5.65;4.82;;;;;;;16.81;50.70;100005.84;8178602;29;20043;-72
2022/04/30 09:55:08;;;;;;;7.50;4.55;;;;;;;15.93;52.94;99997.81;8188298;28;20047;-71
2022/04/30 09:59:12;;;;;;;8.35;4.90;;;;;;;15.76;55.56;99995.47;8183538;28;20039;-71
2022/04/30 10:03:15;;;;;;;6.15;4.30;;;;;;;15.76;55.55;99998.06;8175065;28;20054;-72
2022/04/30 10:07:20;;;;;;;6.70;4.70;;;;;;;15.83;54.75;99994.50;8173548;28;20054;-72
2022/04/30 10:11:32;;;;;;;7.10;4.45;;;;;;;15.93;54.88;99987.31;8157226;29;20089;-72
2022/04/30 10:15:51;;;;;;;4.90;4.32;;;;;;;15.96;55.47;99985.50;8170237;29;20051;-72
2022/04/30 10:19:57;;;;;;;7.20;4.22;;;;;;;16.11;54.49;99992.25;8155151;29;20496;-72
2022/04/30 10:24:04;;;;;;;6.15;4.32;;;;;;;16.16;54.73;99992.19;8155579;29;20051;-72
2022/04/30 10:28:34;;;;;;;6.30;4.57;;;;;;;15.96;52.09;99989.88;8184516;29;20085;-72
2022/04/30 10:32:37;;;;;;;5.30;4.00;;;;;;;15.80;53.63;99989.31;8152375;29;20086;-72
2022/04/30 10:36:39;;;;;;;8.45;4.93;;;;;;;15.70;53.27;99990.31;8171639;28;20157;-72
2022/04/30 10:40:49;;;;;;;6.75;4.80;;;;;;;15.65;54.36;99989.53;8181854;29;20039;-73
2022/04/30 10:44:55;;;;;;;6.18;4.85;;;;;;;15.43;54.27;99981.09;8187547;28;20067;-72
2022/04/30 10:48:56;;;;;;;4.72;4.18;;;;;;;15.35;55.84;99989.06;8175166;28;20044;-72
2022/04/30 10:53:02;;;;;;;3.92;3.60;;;;;;;15.22;56.20;99982.25;8198382;28;20118;-72
2022/04/30 10:57:04;;;;;;;6.78;4.30;;;;;;;15.16;55.95;99979.75;8177731;28;20086;-72
2022/04/30 11:01:14;;;;;;;6.65;3.63;;;;;;;15.10;56.80;99983.31;8177322;29;20105;-72
2022/04/30 11:05:24;;;;;;;6.60;3.58;;;;;;;15.08;56.93;99971.13;8183543;29;20055;-72
2022/04/30 11:09:26;;;;;;;4.05;3.75;;;;;;;14.96;55.53;99972.16;8180088;28;20047;-72
2022/04/30 11:13:27;;;;;;;7.17;3.77;;;;;;;14.92;56.51;99967.00;8174739;28;20123;-72
2022/04/30 11:17:28;;;;;;;7.53;4.57;;;;;;;14.93;56.44;99958.28;8180264;28;20070;-72
2022/04/30 11:21:34;;;;;;;9.97;4.60;;;;;;;14.83;57.08;99960.13;8192332;28;20126;-72
2022/04/30 11:25:38;;;;;;;4.95;4.10;;;;;;;14.88;57.25;99962.66;8187158;28;20039;-72
2022/04/30 11:29:55;;;;;;;4.95;3.63;;;;;;;14.97;57.65;99965.19;8180453;28;20359;-72
2022/04/30 11:34:07;;;;;;;4.07;3.38;;;;;;;15.19;56.17;99961.38;8198720;28;20812;-72
2022/04/30 11:38:10;;;;;;;5.13;3.90;;;;;;;15.81;56.54;99950.88;8166915;29;20067;-72
2022/04/30 11:42:12;;;;;;;4.28;3.92;;;;;;;16.70;54.96;99943.13;8189221;29;20051;-73
2022/04/30 11:46:14;;;;;;;9.27;4.10;;;;;;;17.07;51.33;99942.34;8172117;29;20597;-72
2022/04/30 11:50:16;;;;;;;3.80;3.15;;;;;;;17.14;51.32;99942.19;8172651;29;21388;-72
2022/04/30 11:54:20;;;;;;;5.47;3.53;;;;;;;17.02;50.96;99939.81;8184559;28;20779;-72
2022/04/30 11:58:22;;;;;;;4.55;3.65;;;;;;;16.88;50.65;99939.28;8185132;29;20054;-72
2022/04/30 12:02:45;;;;;;;5.30;4.38;;;;;;;17.08;50.87;99931.81;8182959;28;20047;-72
2022/04/30 12:06:58;;;;;;;7.72;4.25;;;;;;;17.31;50.33;99930.44;8182894;28;20059;-73
2022/04/30 12:10:59;;;;;;;5.25;4.47;;;;;;;17.15;49.68;99925.53;8176776;28;20044;-72
2022/04/30 12:15:01;;;;;;;4.78;4.07;;;;;;;17.12;50.79;99917.72;8175924;29;20111;-72
2022/04/30 12:28:02;;;;;;;7.03;4.55;;;;;;;16.89;49.08;99915.63;8127669;28;20059;-72
2022/04/30 12:32:17;;;;;;;3.63;3.28;;;;;;;16.66;50.03;99919.56;8174856;28;20051;-72
2022/04/30 12:36:25;;;;;;;5.10;3.42;;;;;;;16.87;51.20;99922.63;8169552;28;20060;-72
2022/04/30 12:40:26;;;;;;;3.53;3.22;;;;;;;17.11;50.82;99913.38;8179544;28;20059;-73
2022/04/30 12:44:28;;;;;;;4.80;3.73;;;;;;;17.17;49.77;99907.13;8183990;28;20057;-72
2022/04/30 12:48:33;;;;;;;4.70;3.45;;;;;;;17.05;49.39;99904.75;8170487;28;20616;-73
2022/04/30 12:52:37;;;;;;;3.55;3.10;;;;;;;16.85;49.12;99908.69;8182080;28;20130;-72
2022/04/30 12:56:43;;;;;;;3.75;3.38;;;;;;;16.76;48.95;99908.03;8181156;28;20043;-72
2022/04/30 13:00:45;;;;;;;4.05;2.92;;;;;;;16.66;48.74;99903.84;8171335;29;20086;-72
2022/04/30 13:04:47;;;;;;;3.15;2.85;;;;;;;16.87;49.57;99900.78;8178169;28;20275;-73
2022/04/30 13:13:31;;;;;;;5.85;3.90;;;;;;;17.32;48.60;99890.16;8133915;29;20188;-72
2022/04/30 13:17:33;;;;;;;4.57;3.88;;;;;;;17.75;45.69;99885.59;8155532;28;20129;-72
2022/04/30 13:21:34;;;;;;;4.33;2.90;;;;;;;17.89;44.79;99879.13;8196661;28;20047;-72
2022/04/30 13:25:36;;;;;;;4.63;3.57;;;;;;;18.23;44.02;99873.81;8189680;28;20079;-73
2022/04/30 13:29:38;;;;;;;4.65;3.35;;;;;;;18.55;43.98;99878.16;8188075;29;20311;-72
2022/04/30 13:33:39;;;;;;;5.10;2.93;;;;;;;19.06;43.29;99869.66;8194948;28;20150;-72
2022/04/30 13:37:41;;;;;;;3.63;2.67;;;;;;;19.26;42.79;99872.50;8174610;29;20051;-72
2022/04/30 13:41:42;;;;;;;3.65;2.90;;;;;;;18.97;42.15;99874.28;8161382;28;20456;-72
2022/04/30 13:45:44;;;;;;;3.90;2.50;;;;;;;18.73;42.58;99874.16;8174446;28;20539;-72
2022/04/30 13:49:45;;;;;;;4.30;2.75;;;;;;;18.38;42.50;99865.50;8176716;29;20051;-72
2022/04/30 13:53:48;;;;;;;;;;;;;;;17.91;41.99;99869.44;8161169;28;20047;-73
2022/04/30 13:57:49;;;;;;;4.50;3.10;;;;;;;17.68;43.53;99865.66;8161971;29;19973;-73
2022/04/30 14:01:53;;;;;;;5.90;3.30;;;;;;;17.50;44.15;99861.69;8159760;28;20408;-72
2022/04/30 14:05:55;;;;;;;4.53;2.80;;;;;;;17.54;45.05;99854.59;8175223;29;20134;-72
2022/04/30 14:09:56;;;;;;;3.30;2.80;;;;;;;17.44;44.62;99867.09;8181672;29;20130;-73
2022/04/30 14:18:38;;;;;;;3.35;2.83;;;;;;;17.39;45.01;99858.47;8179947;28;20506;-73
2022/04/30 14:22:40;;;;;;;3.97;3.40;;;;;;;17.74;45.35;99848.84;8165384;29;20879;-73
2022/04/30 14:26:42;;;;;;;;;;;;;;;18.08;43.92;99857.56;8182314;29;20047;-72
2022/04/30 14:30:44;;;;;;;3.50;3.07;;;;;;;18.32;43.22;99842.88;8178004;28;19926;-72
2022/04/30 14:34:46;;;;;;;4.90;3.00;;;;;;;18.42;41.97;99852.22;8180526;28;20069;-72
2022/04/30 14:38:48;;;;;;;3.95;3.20;;;;;;;18.58;42.21;99846.50;8180244;28;20047;-72
2022/04/30 14:42:49;;;;;;;3.70;2.77;;;;;;;18.65;41.09;99853.34;8171882;29;20127;-72
2022/04/30 14:46:51;;;;;;;5.15;3.47;;;;;;;18.53;41.54;99848.44;8159378;28;20396;-72
2022/04/30 14:50:53;;;;;;;3.63;2.50;;;;;;;18.52;40.39;99844.06;8161171;28;20142;-73
2022/04/30 14:54:56;;;;;;;2.93;2.63;;;;;;;18.75;41.54;99841.63;8179408;28;20046;-72
2022/04/30 14:58:58;;;;;;;6.75;3.10;;;;;;;18.74;40.04;99842.56;8174923;29;20047;-72
2022/04/30 15:02:59;;;;;;;4.85;2.70;;;;;;;18.73;40.49;99839.97;8180126;29;20039;-72
2022/04/30 15:07:01;;;;;;;3.10;2.40;;;;;;;18.79;40.21;99839.78;8179233;29;20052;-72
2022/04/30 15:11:03;;;;;;;8.30;2.72;;;;;;;18.86;39.28;99833.44;8180898;29;20082;-71
2022/04/30 15:15:05;;;;;;;4.55;2.67;;;;;;;18.96;38.67;99832.22;8159884;29;20637;-72
2022/04/30 15:19:07;;;;;;;5.72;1.92;;;;;;;18.91;38.83;99837.63;8161762;29;20058;-72
2022/04/30 15:23:09;;;;;;;8.50;2.42;;;;;;;18.98;37.35;99840.91;8178660;29;20154;-72
2022/04/30 15:27:10;;;;;;;2.30;2.10;;;;;;;19.21;38.16;99840.19;8178337;29;20436;-72
2022/04/30 15:31:12;;;;;;;3.30;2.38;;;;;;;19.21;36.44;99833.16;8158152;28;20057;-72
2022/04/30 15:35:14;;;;;;;1.63;1.52;;;;;;;19.32;35.49;99828.38;8147591;29;20055;-72
2022/04/30 15:39:15;;;;;;;2.65;1.40;;;;;;;19.37;36.48;99830.88;8180582;29;20047;-72
2022/04/30 15:43:17;;;;;;;4.78;1.88;;;;;;;19.50;35.42;99832.19;8181215;28;20478;-72
2022/04/30 15:51:39;;;;;;;4.13;1.92;;;;;;;19.67;34.97;99831.66;8181377;28;20043;-73
2022/04/30 15:55:40;;;;;;;4.50;1.60;;;;;;;19.67;34.01;99834.28;8178715;29;20055;-72
2022/04/30 15:59:44;;;;;;;2.97;1.93;;;;;;;19.47;33.44;99823.53;8181479;29;20394;-72
2022/04/30 16:03:49;;;;;;;3.42;1.10;;;;;;;19.49;33.61;99819.94;8177001;28;20352;-73
2022/04/30 16:07:51;;;;;;;2.47;1.60;;;;;;;19.47;32.89;99819.13;8197024;28;20143;-72
2022/04/30 16:11:52;;;;;;;2.15;1.48;;;;;;;19.21;33.75;99819.13;8190780;28;20070;-72
2022/04/30 16:15:53;;;;;;;9.63;2.03;;;;;;;19.12;34.60;99822.06;8182765;28;20516;-72
2022/04/30 16:19:55;;;;;;;1.60;1.50;;;;;;;18.90;35.31;99812.22;8190676;28;20513;-72
2022/04/30 16:23:56;;;;;;;4.87;1.47;;;;;;;18.69;36.25;99815.53;8188516;28;20053;-73
2022/04/30 16:27:58;;;;;;;5.38;2.30;;;;;;;18.22;34.54;99807.25;8186429;28;20061;-73
2022/04/30 16:31:59;;;;;;;4.10;1.80;;;;;;;17.65;36.00;99809.69;8170649;28;20075;-74
2022/04/30 16:36:03;;;;;;;2.70;1.40;;;;;;;17.40;38.03;99802.44;8174970;28;20903;-74
2022/04/30 16:40:05;;;;;;;5.55;1.90;;;;;;;17.02;36.81;99808.63;8186796;29;20089;-73
2022/04/30 16:44:06;;;;;;;1.33;1.23;;;;;;;16.79;37.84;99813.56;8183865;29;20043;-73
2022/04/30 16:48:08;;;;;;;5.13;1.30;;;;;;;16.58;38.77;99805.25;8171999;28;20083;-73
2022/04/30 16:52:25;;;;;;;2.45;1.42;;;;;;;16.46;40.23;99815.13;8170202;28;20488;-73
2022/04/30 17:01:08;;;;;;;1.95;1.10;;;;;;;16.23;39.06;99815.63;8181363;28;20059;-73
2022/04/30 17:05:11;;;;;;;11.93;1.48;;;;;;;16.17;39.91;99811.38;8185503;28;20054;-73
2022/04/30 17:09:13;;;;;;;4.85;0.95;;;;;;;16.07;39.31;99809.81;8175381;29;20509;-73
2022/04/30 17:13:14;;;;;;;1.10;0.90;;;;;;;16.07;40.20;99811.59;8176071;29;20067;-73
2022/04/30 17:17:16;;;;;;;1.85;1.00;;;;;;;15.93;39.51;99807.47;8175117;28;20052;-72
2022/04/30 17:21:17;;;;;;;2.58;0.98;;;;;;;15.92;40.94;99804.88;8195831;28;20047;-73
2022/04/30 17:25:18;;;;;;;2.73;1.00;;;;;;;15.92;40.44;99812.75;8178937;29;20047;-73
2022/04/30 17:29:20;;;;;;;3.40;3.20;;;;;;;15.84;43.54;99812.03;8184403;29;20055;-73
2022/04/30 17:38:01;;;;;;;4.35;3.08;;;;;;;15.68;44.98;99833.28;8179047;29;20071;-73
2022/04/30 17:42:03;;;;;;;3.20;2.97;;;;;;;15.51;45.31;99824.81;8168486;29;20066;-72
2022/04/30 17:46:07;;;;;;;4.20;2.72;;;;;;;15.35;45.55;99824.22;8172778;28;20067;-72
2022/04/30 17:50:10;;;;;;;2.35;2.20;;;;;;;15.17;45.16;99828.88;8180316;29;20066;-72
2022/04/30 17:54:12;;;;;;;1.88;1.77;;;;;;;15.03;45.17;99840.41;8181763;29;20154;-73
2022/04/30 17:58:15;;;;;;;2.58;1.67;;;;;;;14.81;45.13;99837.25;8174360;29;20496;-72
2022/04/30 18:02:19;;;;;;;5.13;3.42;;;;;;;14.69;46.03;99842.66;8175846;28;20053;-72
2022/04/30 18:06:21;;;;;;;2.83;2.17;;;;;;;14.60;46.17;99849.78;8165508;29;20852;-72
2022/04/30 18:10:22;;;;;;;3.88;2.90;;;;;;;14.46;45.72;99853.44;8177150;29;20079;-73
2022/04/30 18:14:25;;;;;;;6.00;3.47;;;;;;;14.33;46.48;99857.03;8183649;29;20123;-73
2022/04/30 18:18:27;;;;;;;5.47;2.38;;;;;;;14.18;47.14;99854.59;8178453;28;20666;-72
2022/04/30 18:22:29;;;;;;;2.42;2.22;;;;;;;14.09;47.71;99854.72;8183928;28;20048;-72
2022/04/30 18:26:33;;;;;;;4.68;2.25;;;;;;;14.02;47.34;99860.91;8176926;28;20055;-72
2022/04/30 18:30:35;;;;;;;4.97;2.75;;;;;;;13.86;48.51;99860.19;8173165;28;20086;-72
2022/04/30 18:34:37;;;;;;;2.92;1.95;;;;;;;13.75;49.27;99865.50;8162949;29;20444;-71
2022/04/30 18:38:38;;;;;;;5.88;4.60;;;;;;;13.66;49.64;99867.34;8182189;28;20047;-73
2022/04/30 18:42:40;;;;;;;4.13;2.40;;;;;;;13.57;50.82;99873.50;8167217;29;20082;-71
2022/04/30 18:46:42;;;;;;;2.53;2.03;;;;;;;13.49;50.83;99886.63;8179759;28;20456;-72
2022/04/30 18:50:43;;;;;;;4.68;2.92;;;;;;;13.41;51.61;99884.94;8181225;28;20051;-71
2022/04/30 19:03:27;;;;;;;4.82;3.10;;;;;;;13.10;54.20;99897.28;8154105;28;20050;-71
2022/04/30 19:07:29;;;;;;;6.25;3.15;;;;;;;12.83;55.00;99898.34;8180545;28;20043;-71
2022/04/30 19:11:31;;;;;;;5.67;2.90;;;;;;;12.66;55.75;99899.28;8183850;28;20053;-71
2022/04/30 19:15:34;;;;;;;;;;;;;;;12.51;55.73;99903.69;8164080;28;20057;-71
2022/04/30 19:19:35;;;;;;;2.28;1.83;;;;;;;12.32;56.47;99902.91;8178097;28;19926;-71
2022/04/30 19:23:37;;;;;;;5.78;1.60;;;;;;;12.12;57.37;99915.09;8177639;28;20510;-72
2022/04/30 19:27:41;;;;;;;2.38;2.13;;;;;;;11.93;57.96;99909.94;8188155;28;20479;-71
2022/04/30 19:31:42;;;;;;;3.38;1.60;;;;;;;11.85;58.16;99916.00;8180929;28;20065;-71
2022/04/30 19:35:44;;;;;;;1.55;1.40;;;;;;;11.67;58.38;99919.47;8173240;28;20063;-72
2022/04/30 19:39:52;;;;;;;3.30;1.42;;;;;;;11.42;59.07;99918.59;8183486;28;20053;-71
2022/04/30 19:43:53;;;;;;;3.42;1.67;;;;;;;11.33;59.63;99916.88;8186998;29;20043;-72
2022/04/30 19:47:55;;;;;;;2.97;1.40;;;;;;;11.13;61.55;99918.56;8182084;28;20059;-71
2022/04/30 19:51:56;;;;;;;4.32;1.40;;;;;;;11.00;62.69;99924.59;8185802;28;20043;-71
2022/04/30 19:55:58;;;;;;;1.98;1.50;;;;;;;10.79;63.64;99930.63;8187702;29;20863;-71
2022/04/30 20:00:00;;;;;;;4.33;1.43;;;;;;;10.57;64.93;99927.03;8183034;29;20524;-71
2022/04/30 20:04:01;;;;;;;1.33;1.23;;;;;;;10.53;64.33;99925.31;8170285;28;20295;-71
2022/04/30 20:08:05;;;;;;;3.03;1.70;;;;;;;10.42;65.01;99922.69;8173421;28;20055;-71
2022/04/30 20:20:48;;;;;;;2.00;1.30;;;;;;;9.89;67.91;99930.13;8188937;28;20479;-72
2022/04/30 20:24:50;;;;;;;3.20;1.27;;;;;;;9.72;68.21;99927.41;8187915;28;20046;-71
2022/04/30 20:28:51;;;;;;;3.90;1.70;;;;;;;9.60;68.82;99928.16;8184918;29;20044;-70